LOWK METAR and TAF | Updated Today

LOWK METAR

Klagenfurt Airport

Observation time: 11 min. ago

LOWK 011620Z AUTO VRB01KT CAVOK 00/M03 Q1018 NOSIG

Need help? Read our tutorial on how to read METARs or read the parsed version below.

Klagenfurt Airport (LOWK) METAR

  • Weather conditions on Wed, 01 Feb 2023 16:20:00 +0000 (11 min. ago):
  • Present conditions: Dry
  • Clouds: Clear skies
  • Visibility: Greater than 10 km
  • Wind: Variable at 1 knots
  • Temperature: 0 celsius
  • Dew point: -3 celsius
  • Pressure: 1018 millibars
  • Remarks: None


Useful to know...

LOWK TAF

Klagenfurt Airport

TAF LOWK 011115Z 0112/0212 VRB03KT CAVOK TX02/0212Z TNM05/0205Z TEMPO 0210/0212 9999 -RA -RASN BKN050
Observation time: 5:16 hr. ago
Need help? Read our tutorial on how to read TAFs or read the parsed version below.

Parsed version of TAF for Klagenfurt Airport (LOWK)

  • From 01 February at 12:00 UTC, to day 02 of the month at 12:00 UTC
  • Visibility: Greater than 10 km
  • Wind: Variable at 3
  • Expected to arise temporarily, from 02 February at 10:00 UTC, to day 02 of the month at 12:00 UTC
  • Clouds: Broken sky at 1524 meters
  • Visibility: Greater than 10 km
  • Other: Light rain; light rain snow